createdAt,value
2023-04-29T00:01:48.879Z,87.61
2023-04-29T00:06:51.084Z,87.64
2023-04-29T00:11:51.929Z,87.89
2023-04-29T00:16:52.802Z,87.54
2023-04-29T00:21:55.540Z,87.05
2023-04-29T00:26:56.239Z,88.05
2023-04-29T00:31:56.997Z,87.64
2023-04-29T00:36:58.950Z,87.75
2023-04-29T00:41:59.687Z,87.33
2023-04-29T00:47:00.730Z,87.74
2023-04-29T00:52:02.993Z,88.08
2023-04-29T00:57:06.722Z,87.60
2023-04-29T01:02:07.557Z,86.91
2023-04-29T01:07:16.978Z,87.79
2023-04-29T01:12:23.357Z,87.48
2023-04-29T01:17:26.944Z,87.73
2023-04-29T01:22:29.724Z,87.86
2023-04-29T01:27:37.769Z,87.59
2023-04-29T01:32:54.839Z,87.73
2023-04-29T01:38:09.633Z,86.81
2023-04-29T01:43:15.463Z,87.30
2023-04-29T01:48:20.145Z,87.60
2023-04-29T01:53:20.872Z,88.11
2023-04-29T01:58:22.965Z,88.37
2023-04-29T02:03:40.217Z,88.20
2023-04-29T02:08:45.210Z,89.07
2023-04-29T02:13:47.370Z,89.80
2023-04-29T02:18:49.014Z,90.13
2023-04-29T02:23:50.373Z,89.73
2023-04-29T02:28:52.577Z,90.99
2023-04-29T02:33:55.597Z,91.47
2023-04-29T02:38:56.353Z,91.15
2023-04-29T02:44:00.445Z,91.82
2023-04-29T02:49:01.988Z,91.92
2023-04-29T02:54:02.939Z,92.72
2023-04-29T02:59:04.950Z,92.96
2023-04-29T03:04:06.364Z,93.05
2023-04-29T03:09:07.355Z,93.68
2023-04-29T03:14:09.353Z,93.42
2023-04-29T03:19:12.031Z,93.45
2023-04-29T03:24:12.661Z,93.22
2023-04-29T03:29:14.723Z,93.30
2023-04-29T03:34:15.651Z,93.65
2023-04-29T03:39:22.998Z,94.11
2023-04-29T03:44:25.147Z,94.20
2023-04-29T03:49:26.369Z,94.02
2023-04-29T03:54:27.228Z,94.06
2023-04-29T03:59:29.714Z,93.54
2023-04-29T04:04:30.567Z,93.56
2023-04-29T04:09:33.574Z,93.83
2023-04-29T04:14:35.720Z,93.33
2023-04-29T04:19:36.932Z,93.50
2023-04-29T04:24:40.828Z,93.06
2023-04-29T04:29:42.883Z,94.06
2023-04-29T04:34:49.339Z,93.14
2023-04-29T04:39:50.382Z,93.20
2023-04-29T04:44:54.186Z,93.61
2023-04-29T04:50:07.298Z,92.84
2023-04-29T04:55:09.303Z,92.48
2023-04-29T05:00:14.177Z,92.81
2023-04-29T05:05:14.952Z,93.52
2023-04-29T05:10:18.767Z,92.79
2023-04-29T05:15:27.410Z,93.36
2023-04-29T05:20:30.970Z,92.93
2023-04-29T05:25:33.890Z,93.67
2023-04-29T05:30:37.777Z,93.36
2023-04-29T05:35:39.443Z,93.61
2023-04-29T05:40:40.536Z,93.86
2023-04-29T05:45:56.816Z,93.85
2023-04-29T05:50:57.973Z,92.83
2023-04-29T05:55:59.012Z,92.67
2023-04-29T06:01:02.015Z,93.14
2023-04-29T06:06:05.383Z,91.77
2023-04-29T06:11:26.815Z,91.03
2023-04-29T06:16:29.273Z,89.11
2023-04-29T06:21:30.293Z,89.69
2023-04-29T06:26:31.288Z,89.77
2023-04-29T06:31:33.932Z,88.37
2023-04-29T06:36:37.671Z,87.77
2023-04-29T06:41:38.480Z,86.78
2023-04-29T06:46:50.402Z,84.95
2023-04-29T06:52:05.772Z,84.89
2023-04-29T06:57:06.638Z,84.16
2023-04-29T07:02:08.630Z,85.37
2023-04-29T07:07:09.861Z,84.75
2023-04-29T07:12:10.537Z,84.25
2023-04-29T07:17:14.192Z,84.10
2023-04-29T07:22:16.099Z,83.74
2023-04-29T07:27:16.747Z,85.61
2023-04-29T07:32:18.807Z,87.92
2023-04-29T07:37:20.005Z,88.87
2023-04-29T07:42:21.995Z,88.37
2023-04-29T07:47:24.146Z,88.22
2023-04-29T07:52:24.921Z,87.01
2023-04-29T07:57:25.689Z,87.12
2023-04-29T08:02:28.073Z,85.93
2023-04-29T08:07:29.509Z,85.25
2023-04-29T08:12:32.193Z,84.63
2023-04-29T08:17:36.106Z,83.18
2023-04-29T08:22:36.828Z,82.00
2023-04-29T08:27:37.569Z,80.87
2023-04-29T08:32:39.674Z,82.68
2023-04-29T08:37:42.508Z,83.52
2023-04-29T08:42:48.863Z,84.34
2023-04-29T08:47:52.512Z,84.36
2023-04-29T08:52:53.286Z,85.57
2023-04-29T08:57:56.469Z,84.70
2023-04-29T09:03:00.904Z,85.38
2023-04-29T09:08:03.786Z,85.18
2023-04-29T09:13:04.532Z,83.88
2023-04-29T09:18:06.543Z,84.07
2023-04-29T09:23:07.246Z,84.21
2023-04-29T09:28:16.534Z,83.78
2023-04-29T09:33:18.561Z,85.32
2023-04-29T09:38:19.385Z,83.92
2023-04-29T09:43:21.511Z,82.79
2023-04-29T09:48:23.535Z,82.71
2023-04-29T09:53:30.410Z,82.49
2023-04-29T09:58:37.125Z,81.39
2023-04-29T10:03:40.305Z,79.84
2023-04-29T10:08:41.992Z,78.09
2023-04-29T10:13:44.936Z,77.01
2023-04-29T10:18:53.781Z,76.78
2023-04-29T10:23:55.966Z,76.23
2023-04-29T10:28:57.596Z,75.87
2023-04-29T10:34:01.706Z,75.82
2023-04-29T10:39:06.352Z,77.09
2023-04-29T10:44:07.036Z,74.24
2023-04-29T10:49:09.374Z,71.70
2023-04-29T10:54:11.715Z,69.24
2023-04-29T10:59:14.282Z,68.91
2023-04-29T11:04:17.527Z,68.13
2023-04-29T11:09:22.515Z,67.95
2023-04-29T11:14:26.796Z,67.61
2023-04-29T11:19:33.346Z,68.48
2023-04-29T11:24:35.653Z,69.98
2023-04-29T11:29:36.400Z,71.47
2023-04-29T11:34:38.575Z,69.18
2023-04-29T11:39:39.357Z,65.84
2023-04-29T11:44:40.598Z,66.03
2023-04-29T11:49:42.985Z,66.83
2023-04-29T11:54:43.721Z,64.69
2023-04-29T11:59:44.397Z,64.77
2023-04-29T12:04:49.427Z,64.19
2023-04-29T12:09:50.246Z,64.79
2023-04-29T12:14:51.629Z,64.76
2023-04-29T12:19:53.980Z,66.38
2023-04-29T12:24:56.020Z,67.61
2023-04-29T12:29:58.357Z,68.81
2023-04-29T12:35:00.352Z,70.04
2023-04-29T12:40:00.999Z,69.78
2023-04-29T12:45:01.685Z,70.83
2023-04-29T12:50:03.949Z,69.58
2023-04-29T12:55:06.571Z,70.24
2023-04-29T13:00:09.275Z,71.44
2023-04-29T13:05:12.854Z,72.15
2023-04-29T13:10:14.279Z,72.53
2023-04-29T13:15:15.727Z,73.83
2023-04-29T13:20:17.811Z,73.87
2023-04-29T13:25:18.484Z,75.38
2023-04-29T13:30:19.274Z,76.50
2023-04-29T13:35:21.332Z,77.94
2023-04-29T13:40:22.272Z,78.12
2023-04-29T13:45:22.950Z,80.10
2023-04-29T13:51:09.637Z,80.77
2023-04-29T14:05:54.765Z,81.43
2023-04-29T14:10:55.485Z,81.71
2023-04-29T14:15:56.690Z,81.59
2023-04-29T14:20:59.623Z,80.43
2023-04-29T14:26:11.628Z,79.71
2023-04-29T14:31:21.093Z,79.73
2023-04-29T14:36:23.249Z,79.03
2023-04-29T14:41:23.926Z,79.66
2023-04-29T14:46:25.258Z,79.10
2023-04-29T14:51:28.390Z,77.73
2023-04-29T14:56:29.091Z,78.27
2023-04-29T15:01:32.089Z,77.47
2023-04-29T15:06:35.266Z,77.61
2023-04-29T15:11:36.129Z,77.25
2023-04-29T15:16:37.270Z,76.91
2023-04-29T15:21:39.355Z,76.20
2023-04-29T15:26:40.236Z,75.35
2023-04-29T15:31:41.141Z,75.37
2023-04-29T15:36:43.314Z,75.08
2023-04-29T15:41:44.041Z,74.13
2023-04-29T15:46:44.764Z,74.54
2023-04-29T15:51:46.807Z,74.28
2023-04-29T15:56:47.532Z,73.85
2023-04-29T16:01:48.360Z,74.83
2023-04-29T16:06:51.110Z,74.69
2023-04-29T16:11:53.661Z,74.83
2023-04-29T16:16:54.626Z,75.15
2023-04-29T16:21:56.752Z,74.33
2023-04-29T16:26:58.932Z,74.11
2023-04-29T16:31:59.801Z,73.92
2023-04-29T16:37:01.919Z,74.66
2023-04-29T16:42:02.688Z,74.73
2023-04-29T16:47:03.543Z,74.68
2023-04-29T16:52:06.492Z,74.63
2023-04-29T16:57:07.263Z,73.66
2023-04-29T17:02:08.015Z,73.28
2023-04-29T17:07:10.624Z,72.99
2023-04-29T17:12:11.818Z,73.03
2023-04-29T17:17:12.443Z,73.47
2023-04-29T17:22:14.431Z,72.85
2023-04-29T17:27:15.605Z,73.49
2023-04-29T17:32:17.528Z,73.22
2023-04-29T17:37:24.889Z,73.90
2023-04-29T17:42:25.702Z,73.97
2023-04-29T17:47:26.475Z,74.64
2023-04-29T17:52:29.196Z,74.77
2023-04-29T17:57:29.929Z,74.61
2023-04-29T18:02:33.566Z,74.75
2023-04-29T18:07:35.720Z,74.26
2023-04-29T18:12:36.420Z,74.48
2023-04-29T18:17:37.129Z,74.99
2023-04-29T18:22:39.469Z,75.26
2023-04-29T18:27:40.239Z,74.87
2023-04-29T18:32:41.268Z,75.96
2023-04-29T18:37:43.414Z,75.74
2023-04-29T18:42:45.222Z,75.59
2023-04-29T18:47:45.942Z,75.76
2023-04-29T18:52:47.956Z,75.52
2023-04-29T18:57:48.656Z,75.48
2023-04-29T19:02:49.449Z,75.40
2023-04-29T19:07:51.521Z,75.84
2023-04-29T19:12:52.241Z,75.78
2023-04-29T19:17:52.979Z,75.69
2023-04-29T19:22:55.143Z,75.35
2023-04-29T19:27:55.962Z,76.17
2023-04-29T19:32:56.725Z,75.27
2023-04-29T19:37:58.992Z,76.31
2023-04-29T19:42:59.782Z,76.07
2023-04-29T19:48:02.189Z,74.77
2023-04-29T19:53:04.294Z,75.26
2023-04-29T19:58:04.984Z,74.20
2023-04-29T20:03:05.982Z,74.67
2023-04-29T20:08:08.333Z,75.25
2023-04-29T20:13:09.064Z,74.99
2023-04-29T20:18:09.847Z,74.91
2023-04-29T20:23:12.159Z,73.97
2023-04-29T20:28:13.274Z,74.59
2023-04-29T20:33:13.986Z,74.83
2023-04-29T20:38:16.085Z,74.78
2023-04-29T20:43:17.319Z,75.19
2023-04-29T20:48:18.043Z,74.62
2023-04-29T20:53:20.234Z,74.58
2023-04-29T20:58:20.954Z,74.66
2023-04-29T21:03:22.338Z,74.50
2023-04-29T21:08:24.351Z,74.82
2023-04-29T21:13:25.032Z,73.94
2023-04-29T21:18:26.199Z,75.10
2023-04-29T21:23:28.263Z,74.66
2023-04-29T21:28:28.990Z,73.81
2023-04-29T21:33:29.832Z,74.14
2023-04-29T21:38:31.797Z,74.53
2023-04-29T21:43:33.178Z,74.87
2023-04-29T21:48:33.956Z,74.52
2023-04-29T21:53:37.222Z,74.41
2023-04-29T21:58:37.916Z,75.22
2023-04-29T22:03:38.793Z,74.76
2023-04-29T22:08:40.814Z,75.05
2023-04-29T22:13:41.968Z,74.17
2023-04-29T22:18:42.717Z,74.98
2023-04-29T22:23:44.883Z,73.87
2023-04-29T22:28:45.569Z,74.08
2023-04-29T22:33:46.323Z,74.21
2023-04-29T22:38:48.873Z,74.82
2023-04-29T22:43:49.536Z,74.80
2023-04-29T22:48:50.280Z,74.76
2023-04-29T22:53:52.273Z,74.90
2023-04-29T22:58:52.964Z,75.11
2023-04-29T23:03:53.654Z,75.11
2023-04-29T23:08:55.676Z,75.42
2023-04-29T23:13:56.319Z,74.80
2023-04-29T23:18:56.990Z,74.84
2023-04-29T23:23:58.991Z,74.29
2023-04-29T23:29:00.030Z,74.22
2023-04-29T23:34:00.844Z,75.26
2023-04-29T23:39:02.856Z,75.12
2023-04-29T23:44:03.942Z,75.47
2023-04-29T23:49:04.605Z,75.04
2023-04-29T23:54:06.777Z,74.73
2023-04-29T23:59:07.480Z,75.13
